createdAt,value
2023-01-19T00:01:36.603Z,1.96
2023-01-19T00:04:03.094Z,2.00
2023-01-19T00:06:29.611Z,2.00
2023-01-19T00:08:55.979Z,2.01
2023-01-19T00:11:23.096Z,2.04
2023-01-19T00:13:50.610Z,2.14
2023-01-19T00:16:18.262Z,2.17
2023-01-19T00:18:45.662Z,2.26
2023-01-19T00:21:14.781Z,2.25
2023-01-19T00:23:42.330Z,2.28
2023-01-19T00:26:08.787Z,2.31
2023-01-19T00:28:35.175Z,2.35
2023-01-19T00:31:01.641Z,2.40
2023-01-19T00:33:28.234Z,2.39
2023-01-19T00:35:57.369Z,2.41
2023-01-19T00:38:23.774Z,2.43
2023-01-19T00:40:50.328Z,2.44
2023-01-19T00:43:16.707Z,2.46
2023-01-19T00:45:43.133Z,2.45
2023-01-19T00:48:09.629Z,2.51
2023-01-19T00:50:36.304Z,2.56
2023-01-19T00:53:03.340Z,2.63
2023-01-19T00:55:31.378Z,2.62
2023-01-19T00:57:58.147Z,2.63
2023-01-19T01:00:25.051Z,2.58
2023-01-19T01:02:53.109Z,2.56
2023-01-19T01:05:19.819Z,2.62
2023-01-19T01:07:49.395Z,2.65
2023-01-19T01:10:25.139Z,2.64
2023-01-19T01:12:56.360Z,2.62
2023-01-19T01:15:27.778Z,2.62
2023-01-19T01:17:54.840Z,2.66
2023-01-19T01:20:26.979Z,2.67
2023-01-19T01:22:54.254Z,2.67
2023-01-19T01:25:23.310Z,2.70
2023-01-19T01:27:50.134Z,2.75
2023-01-19T01:30:19.669Z,2.74
2023-01-19T01:32:46.221Z,2.74
2023-01-19T01:35:13.792Z,2.81
2023-01-19T01:37:40.436Z,2.79
2023-01-19T01:40:07.471Z,2.81
2023-01-19T01:42:35.324Z,2.90
2023-01-19T01:45:07.432Z,2.97
2023-01-19T01:47:42.636Z,2.94
2023-01-19T01:50:17.767Z,2.93
2023-01-19T01:53:06.572Z,2.93
2023-01-19T01:55:38.009Z,2.93
2023-01-19T01:58:05.875Z,2.94
2023-01-19T02:00:51.028Z,2.96
2023-01-19T02:03:17.580Z,3.02
2023-01-19T02:05:45.546Z,3.02
2023-01-19T02:08:36.872Z,3.07
2023-01-19T02:11:22.209Z,3.07
2023-01-19T02:13:48.972Z,3.03
2023-01-19T02:16:16.923Z,3.06
2023-01-19T02:18:45.210Z,3.06
2023-01-19T02:21:31.839Z,3.07
2023-01-19T02:24:01.522Z,3.06
2023-01-19T02:26:31.737Z,3.06
2023-01-19T02:29:01.952Z,3.09
2023-01-19T02:31:30.643Z,3.08
2023-01-19T02:33:59.214Z,3.07
2023-01-19T02:36:30.664Z,3.08
2023-01-19T02:39:00.192Z,3.06
2023-01-19T02:41:30.896Z,3.06
2023-01-19T02:43:58.818Z,3.13
2023-01-19T02:46:25.742Z,3.16
2023-01-19T02:48:52.284Z,3.13
2023-01-19T02:51:24.030Z,3.12
2023-01-19T02:54:08.737Z,3.14
2023-01-19T02:56:50.577Z,3.13
2023-01-19T02:59:46.951Z,3.14
2023-01-19T03:02:23.921Z,3.12
2023-01-19T03:04:59.663Z,3.21
2023-01-19T03:07:52.072Z,3.28
2023-01-19T03:10:42.084Z,3.18
2023-01-19T03:13:23.671Z,3.16
2023-01-19T03:15:55.469Z,3.24
2023-01-19T03:18:27.006Z,3.26
2023-01-19T03:20:57.421Z,3.24
2023-01-19T03:23:28.656Z,3.20
2023-01-19T03:25:57.689Z,3.19
2023-01-19T03:28:26.614Z,3.22
2023-01-19T03:30:58.637Z,3.20
2023-01-19T03:33:31.912Z,3.22
2023-01-19T03:36:04.213Z,3.24
2023-01-19T03:38:35.119Z,3.26
2023-01-19T03:41:06.700Z,3.23
2023-01-19T03:43:35.340Z,3.25
2023-01-19T03:46:04.385Z,3.26
2023-01-19T03:48:31.513Z,3.25
2023-01-19T03:50:58.179Z,3.26
2023-01-19T03:53:24.581Z,3.24
2023-01-19T03:55:52.031Z,3.24
2023-01-19T03:58:18.380Z,3.30
2023-01-19T04:00:44.881Z,3.33
2023-01-19T04:03:14.823Z,3.34
2023-01-19T04:05:41.675Z,3.31
2023-01-19T04:08:08.121Z,3.30
2023-01-19T04:10:34.631Z,3.25
2023-01-19T04:13:02.481Z,3.20
2023-01-19T04:15:29.690Z,3.19
2023-01-19T04:18:01.045Z,3.19
2023-01-19T04:20:28.238Z,3.23
2023-01-19T04:22:58.691Z,3.22
2023-01-19T04:25:25.191Z,3.25
2023-01-19T04:27:53.084Z,3.27
2023-01-19T04:30:19.927Z,3.25
2023-01-19T04:32:46.786Z,3.25
2023-01-19T04:35:13.168Z,3.27
2023-01-19T04:37:40.158Z,3.30
2023-01-19T04:40:07.364Z,3.33
2023-01-19T04:42:33.894Z,3.30
2023-01-19T04:45:00.271Z,3.31
2023-01-19T04:47:26.904Z,3.28
2023-01-19T04:49:53.276Z,3.28
2023-01-19T04:52:20.278Z,3.29
2023-01-19T04:54:46.631Z,3.28
2023-01-19T04:57:13.079Z,3.26
2023-01-19T04:59:39.488Z,3.24
2023-01-19T05:02:06.048Z,3.26
2023-01-19T05:04:32.587Z,3.31
2023-01-19T05:06:58.957Z,3.32
2023-01-19T05:09:26.858Z,3.34
2023-01-19T05:11:53.321Z,3.32
2023-01-19T05:14:19.936Z,3.35
2023-01-19T05:16:46.291Z,3.40
2023-01-19T05:19:12.844Z,3.44
2023-01-19T05:21:39.429Z,3.42
2023-01-19T05:24:06.404Z,3.35
2023-01-19T05:26:32.830Z,3.32
2023-01-19T05:28:59.207Z,3.37
2023-01-19T05:31:25.859Z,3.34
2023-01-19T05:33:52.528Z,3.31
2023-01-19T05:36:18.887Z,3.31
2023-01-19T05:38:45.278Z,3.33
2023-01-19T05:41:11.652Z,3.35
2023-01-19T05:43:38.065Z,3.28
2023-01-19T05:46:05.275Z,3.29
2023-01-19T05:48:31.671Z,3.31
2023-01-19T05:50:59.288Z,3.29
2023-01-19T05:53:26.340Z,3.26
2023-01-19T05:55:52.697Z,3.26
2023-01-19T05:58:19.103Z,3.28
2023-01-19T06:00:45.616Z,3.27
2023-01-19T06:03:12.459Z,3.29
2023-01-19T06:05:39.417Z,3.27
2023-01-19T06:08:06.012Z,3.27
2023-01-19T06:10:32.381Z,3.30
2023-01-19T06:12:59.368Z,3.34
2023-01-19T06:15:26.037Z,3.32
2023-01-19T06:17:52.424Z,3.33
2023-01-19T06:20:18.952Z,3.32
2023-01-19T06:22:45.508Z,3.37
2023-01-19T06:25:12.449Z,3.43
2023-01-19T06:27:39.870Z,3.45
2023-01-19T06:30:06.847Z,3.39
2023-01-19T06:32:33.236Z,3.35
2023-01-19T06:34:59.696Z,3.27
2023-01-19T06:37:28.207Z,3.26
2023-01-19T06:39:54.834Z,3.29
2023-01-19T06:42:21.760Z,3.33
2023-01-19T06:44:48.168Z,3.31
2023-01-19T06:47:16.464Z,3.34
2023-01-19T06:49:43.040Z,3.37
2023-01-19T06:52:15.913Z,3.41
2023-01-19T06:54:43.419Z,3.42
2023-01-19T06:57:12.228Z,3.41
2023-01-19T06:59:39.015Z,3.37
2023-01-19T07:02:27.043Z,3.34
2023-01-19T07:04:53.540Z,3.32
2023-01-19T07:07:20.788Z,3.32
2023-01-19T07:09:47.224Z,3.29
2023-01-19T07:12:14.506Z,3.26
2023-01-19T07:14:40.960Z,3.31
2023-01-19T07:17:07.695Z,3.34
2023-01-19T07:19:35.300Z,3.42
2023-01-19T07:22:03.025Z,3.45
2023-01-19T07:24:30.595Z,3.40
2023-01-19T07:26:56.952Z,3.41
2023-01-19T07:29:23.450Z,3.43
2023-01-19T07:31:50.064Z,3.47
2023-01-19T07:34:16.953Z,3.50
2023-01-19T07:36:43.995Z,3.54
2023-01-19T07:39:10.454Z,3.49
2023-01-19T07:41:36.852Z,3.45
2023-01-19T07:44:06.573Z,3.37
2023-01-19T07:46:32.972Z,3.41
2023-01-19T07:48:59.335Z,3.38
2023-01-19T07:51:25.858Z,3.37
2023-01-19T07:53:52.432Z,3.36
2023-01-19T07:56:18.843Z,3.31
2023-01-19T07:58:45.274Z,3.29
2023-01-19T08:01:13.381Z,3.37
2023-01-19T08:03:40.190Z,3.37
2023-01-19T08:06:07.345Z,3.37
2023-01-19T08:08:34.437Z,3.31
2023-01-19T08:11:00.966Z,3.35
2023-01-19T08:13:27.483Z,3.40
2023-01-19T08:15:54.429Z,3.47
2023-01-19T08:18:21.239Z,3.52
2023-01-19T08:20:47.790Z,3.50
2023-01-19T08:23:17.982Z,3.50
2023-01-19T08:25:45.171Z,3.55
2023-01-19T08:28:16.683Z,3.60
2023-01-19T08:30:44.861Z,3.66
2023-01-19T08:33:12.821Z,3.72
2023-01-19T08:35:47.246Z,3.72
2023-01-19T08:38:13.711Z,3.72
2023-01-19T08:40:41.915Z,3.74
2023-01-19T08:43:11.290Z,3.72
2023-01-19T08:45:46.411Z,3.70
2023-01-19T08:48:13.515Z,3.70
2023-01-19T08:50:40.160Z,3.73
2023-01-19T08:53:07.292Z,3.69
2023-01-19T08:55:36.063Z,3.75
2023-01-19T08:58:04.426Z,3.77
2023-01-19T09:00:33.472Z,3.83
2023-01-19T09:03:03.458Z,3.87
2023-01-19T09:05:35.757Z,3.89
2023-01-19T09:08:08.231Z,3.88
2023-01-19T09:10:36.133Z,3.92
2023-01-19T09:13:07.992Z,3.89
2023-01-19T09:15:37.320Z,3.86
2023-01-19T09:18:10.248Z,3.81
2023-01-19T09:20:38.654Z,3.84
2023-01-19T09:23:06.149Z,3.81
2023-01-19T09:25:32.790Z,3.76
2023-01-19T09:28:00.338Z,3.73
2023-01-19T09:30:27.855Z,3.66
2023-01-19T09:32:54.461Z,3.62
2023-01-19T09:35:21.657Z,3.68
2023-01-19T09:37:48.456Z,3.70
2023-01-19T09:40:18.601Z,3.65
2023-01-19T09:42:51.865Z,3.60
2023-01-19T09:45:26.949Z,3.60
2023-01-19T09:47:54.441Z,3.60
2023-01-19T09:50:27.648Z,3.60
2023-01-19T09:53:13.640Z,3.56
2023-01-19T09:55:41.942Z,3.59
2023-01-19T09:58:19.007Z,3.62
2023-01-19T10:00:52.971Z,3.65
2023-01-19T10:03:20.650Z,3.71
2023-01-19T10:05:52.737Z,3.74
2023-01-19T10:08:21.923Z,3.84
2023-01-19T10:10:53.714Z,3.85
2023-01-19T10:13:34.242Z,3.79
2023-01-19T10:16:21.083Z,3.79
2023-01-19T10:18:51.513Z,3.85
2023-01-19T10:21:23.128Z,3.89
2023-01-19T10:23:57.183Z,3.92
2023-01-19T10:26:26.984Z,3.97
2023-01-19T10:28:57.802Z,3.95
2023-01-19T10:31:24.894Z,3.91
2023-01-19T10:33:52.416Z,3.95
2023-01-19T10:36:21.872Z,3.93
2023-01-19T10:38:48.414Z,3.93
2023-01-19T10:41:19.556Z,3.91
2023-01-19T10:43:47.612Z,3.90
2023-01-19T10:46:33.311Z,3.92
2023-01-19T10:49:00.134Z,3.98
2023-01-19T10:51:27.597Z,4.00
2023-01-19T10:53:57.878Z,3.99
2023-01-19T10:56:32.536Z,3.95
2023-01-19T10:59:00.850Z,3.95
2023-01-19T11:01:30.484Z,3.90
2023-01-19T11:04:05.629Z,3.89
2023-01-19T11:06:34.334Z,3.94
2023-01-19T11:09:11.518Z,4.02
2023-01-19T11:11:50.013Z,4.04
2023-01-19T11:14:20.768Z,3.98
2023-01-19T11:16:55.977Z,4.02
2023-01-19T11:19:29.707Z,4.05
2023-01-19T11:22:15.170Z,4.02
2023-01-19T11:24:44.190Z,4.01
2023-01-19T11:27:10.560Z,4.01
2023-01-19T11:29:37.161Z,4.05
2023-01-19T11:32:19.016Z,4.02
2023-01-19T11:34:45.472Z,3.98
2023-01-19T11:37:17.954Z,4.00
2023-01-19T11:39:50.523Z,3.97
2023-01-19T11:42:18.706Z,3.97
2023-01-19T11:44:55.470Z,4.00
2023-01-19T11:47:34.037Z,4.01
2023-01-19T11:50:09.753Z,4.08
2023-01-19T11:52:43.209Z,4.07
2023-01-19T11:55:36.729Z,4.07
2023-01-19T11:58:04.944Z,4.08
2023-01-19T12:00:46.325Z,3.98
2023-01-19T12:03:35.682Z,3.96
2023-01-19T12:06:12.163Z,3.97
2023-01-19T12:09:02.985Z,3.98
2023-01-19T12:11:37.519Z,3.99
2023-01-19T12:14:06.875Z,3.97
2023-01-19T12:16:37.863Z,4.01
2023-01-19T12:19:10.745Z,4.07
2023-01-19T12:21:37.933Z,4.17
2023-01-19T12:24:16.311Z,4.22
2023-01-19T12:26:54.400Z,4.23
2023-01-19T12:29:24.937Z,4.27
2023-01-19T12:32:13.191Z,4.33
2023-01-19T12:34:51.769Z,4.34
2023-01-19T12:37:28.421Z,4.35
2023-01-19T12:40:05.474Z,4.42
2023-01-19T12:42:33.839Z,4.38
2023-01-19T12:45:25.525Z,4.43
2023-01-19T12:47:56.204Z,4.48
2023-01-19T12:50:25.899Z,4.48
2023-01-19T12:53:02.603Z,4.45
2023-01-19T12:55:33.182Z,4.48
2023-01-19T12:58:07.138Z,4.57
2023-01-19T13:00:42.832Z,4.61
2023-01-19T13:03:18.271Z,4.54
2023-01-19T13:05:44.611Z,4.56
2023-01-19T13:08:13.989Z,4.47
2023-01-19T13:11:00.250Z,4.50
2023-01-19T13:13:33.608Z,4.54
2023-01-19T13:16:20.198Z,4.57
2023-01-19T13:18:57.507Z,4.47
2023-01-19T13:21:30.563Z,4.53
2023-01-19T13:24:02.331Z,4.56
2023-01-19T13:26:42.504Z,4.61
2023-01-19T13:29:21.836Z,4.69
2023-01-19T13:31:49.570Z,4.78
2023-01-19T13:34:19.785Z,4.83
2023-01-19T13:36:51.694Z,4.89
2023-01-19T13:39:26.658Z,4.97
2023-01-19T13:41:57.173Z,4.89
2023-01-19T13:44:34.979Z,4.90
2023-01-19T13:47:04.341Z,4.93
2023-01-19T13:49:35.287Z,4.91
2023-01-19T13:52:07.789Z,4.92
2023-01-19T13:54:34.224Z,4.96
2023-01-19T13:57:00.683Z,4.97
2023-01-19T13:59:27.499Z,4.95
2023-01-19T14:01:54.248Z,4.90
2023-01-19T14:04:32.670Z,4.95
2023-01-19T14:07:23.176Z,4.98
2023-01-19T14:10:02.158Z,4.96
2023-01-19T14:12:28.662Z,4.94
2023-01-19T14:14:55.158Z,4.99
2023-01-19T14:17:28.365Z,4.99
2023-01-19T14:20:00.916Z,5.01
2023-01-19T14:22:44.849Z,5.04
2023-01-19T14:25:34.588Z,5.03
2023-01-19T14:28:30.003Z,5.04
2023-01-19T14:31:02.387Z,5.13
2023-01-19T14:33:45.224Z,5.26
2023-01-19T14:36:38.106Z,5.24
2023-01-19T14:39:06.059Z,5.20
2023-01-19T14:41:49.296Z,5.23
2023-01-19T14:44:29.856Z,5.21
2023-01-19T14:46:58.137Z,5.20
2023-01-19T14:49:32.576Z,5.19
2023-01-19T14:52:01.188Z,5.22
2023-01-19T14:54:39.160Z,5.32
2023-01-19T14:57:10.758Z,5.43
2023-01-19T14:59:37.177Z,5.51
2023-01-19T15:02:03.785Z,5.49
2023-01-19T15:04:30.201Z,5.41
2023-01-19T15:06:56.720Z,5.31
2023-01-19T15:09:23.476Z,5.30
2023-01-19T15:11:51.537Z,5.27
2023-01-19T15:14:20.065Z,5.22
2023-01-19T15:16:47.381Z,5.18
2023-01-19T15:19:15.556Z,5.17
2023-01-19T15:21:42.276Z,5.11
2023-01-19T15:24:13.039Z,5.09
2023-01-19T15:26:41.955Z,5.07
2023-01-19T15:29:25.876Z,4.99
2023-01-19T15:31:52.767Z,4.99
2023-01-19T15:34:19.264Z,4.99
2023-01-19T15:36:45.870Z,4.98
2023-01-19T15:39:12.368Z,4.98
2023-01-19T15:41:40.029Z,5.05
2023-01-19T15:44:10.049Z,5.06
2023-01-19T15:46:37.053Z,5.02
2023-01-19T15:49:05.570Z,4.95
2023-01-19T15:51:32.669Z,4.88
2023-01-19T15:53:59.025Z,4.83
2023-01-19T15:56:28.305Z,4.79
2023-01-19T15:58:55.603Z,4.79
2023-01-19T16:01:24.357Z,4.81
2023-01-19T16:03:50.834Z,4.81
2023-01-19T16:06:17.916Z,4.81
2023-01-19T16:08:44.997Z,4.78
2023-01-19T16:11:14.686Z,4.81
2023-01-19T16:13:48.310Z,4.77
2023-01-19T16:16:18.004Z,4.81
2023-01-19T16:18:44.780Z,4.81
2023-01-19T16:21:11.512Z,4.82
2023-01-19T16:23:38.119Z,4.76
2023-01-19T16:26:07.877Z,4.76
2023-01-19T16:28:35.625Z,4.75
2023-01-19T16:31:02.355Z,4.74
2023-01-19T16:33:28.771Z,4.74
2023-01-19T16:35:55.275Z,4.69
2023-01-19T16:38:23.115Z,4.66
2023-01-19T16:40:49.594Z,4.67
2023-01-19T16:43:16.444Z,4.71
2023-01-19T16:46:00.564Z,4.71
2023-01-19T16:48:27.835Z,4.69
2023-01-19T16:50:58.402Z,4.67
2023-01-19T16:53:24.757Z,4.65
2023-01-19T16:55:52.968Z,4.69
2023-01-19T16:58:19.542Z,4.67
2023-01-19T17:00:45.975Z,4.65
2023-01-19T17:03:12.744Z,4.64
2023-01-19T17:05:39.088Z,4.65
2023-01-19T17:08:05.576Z,4.63
2023-01-19T17:10:36.165Z,4.59
2023-01-19T17:13:04.027Z,4.60
2023-01-19T17:15:30.884Z,4.67
2023-01-19T17:17:57.363Z,4.68
2023-01-19T17:20:23.865Z,4.68
2023-01-19T17:22:50.367Z,4.71
2023-01-19T17:25:16.869Z,4.75
2023-01-19T17:27:43.219Z,4.75
2023-01-19T17:30:10.371Z,4.71
2023-01-19T17:32:37.041Z,4.64
2023-01-19T17:35:03.630Z,4.59
2023-01-19T17:37:30.059Z,4.58
2023-01-19T17:39:56.414Z,4.57
2023-01-19T17:42:24.260Z,4.56
2023-01-19T17:44:50.657Z,4.50
2023-01-19T17:47:17.107Z,4.46
2023-01-19T17:49:43.493Z,4.45
2023-01-19T17:52:09.833Z,4.42
2023-01-19T17:54:36.193Z,4.41
2023-01-19T17:57:02.599Z,4.40
2023-01-19T17:59:29.440Z,4.36
2023-01-19T18:01:55.810Z,4.29
2023-01-19T18:04:22.332Z,4.27
2023-01-19T18:06:50.073Z,4.26
2023-01-19T18:09:16.429Z,4.22
2023-01-19T18:11:43.018Z,4.27
2023-01-19T18:14:09.434Z,4.32
2023-01-19T18:16:36.048Z,4.35
2023-01-19T18:19:02.501Z,4.35
2023-01-19T18:21:30.371Z,4.30
2023-01-19T18:24:02.350Z,4.27
2023-01-19T18:26:29.477Z,4.29
2023-01-19T18:28:56.898Z,4.30
2023-01-19T18:31:24.150Z,4.25
2023-01-19T18:33:50.529Z,4.23
2023-01-19T18:36:17.782Z,4.22
2023-01-19T18:38:45.056Z,4.21
2023-01-19T18:41:15.566Z,4.23
2023-01-19T18:43:42.438Z,4.26
2023-01-19T18:46:09.069Z,4.28
2023-01-19T18:48:37.080Z,4.20
2023-01-19T18:51:21.709Z,4.15
2023-01-19T18:53:48.378Z,4.17
2023-01-19T18:56:16.077Z,4.13
2023-01-19T18:58:43.965Z,4.11
2023-01-19T19:01:25.914Z,4.07
2023-01-19T19:03:54.073Z,4.05
2023-01-19T19:06:21.269Z,4.02
2023-01-19T19:08:51.610Z,3.99
2023-01-19T19:11:19.499Z,3.98
2023-01-19T19:13:46.079Z,4.02
2023-01-19T19:16:14.576Z,4.05
2023-01-19T19:18:41.359Z,4.08
2023-01-19T19:21:12.101Z,4.11
2023-01-19T19:23:38.877Z,4.10
2023-01-19T19:26:11.379Z,4.06
2023-01-19T19:28:39.311Z,4.03
2023-01-19T19:31:07.667Z,4.06
2023-01-19T19:33:34.456Z,4.09
2023-01-19T19:36:00.869Z,4.12
2023-01-19T19:38:28.455Z,4.12
2023-01-19T19:40:57.144Z,4.08
2023-01-19T19:43:24.601Z,4.04
2023-01-19T19:46:02.612Z,4.05
2023-01-19T19:48:29.544Z,4.04
2023-01-19T19:50:58.617Z,4.03
2023-01-19T19:53:27.553Z,4.00
2023-01-19T19:55:59.613Z,4.03
2023-01-19T19:58:27.607Z,4.03
2023-01-19T20:00:54.379Z,3.98
2023-01-19T20:03:21.164Z,3.93
2023-01-19T20:05:48.022Z,3.90
2023-01-19T20:08:14.756Z,3.83
2023-01-19T20:10:41.120Z,3.84
2023-01-19T20:13:09.263Z,3.86
2023-01-19T20:15:39.379Z,3.78
2023-01-19T20:18:06.473Z,3.72
2023-01-19T20:20:34.269Z,3.75
2023-01-19T20:23:01.414Z,3.84
2023-01-19T20:25:28.803Z,3.82
2023-01-19T20:27:56.885Z,3.79
2023-01-19T20:30:23.451Z,3.74
2023-01-19T20:32:51.313Z,3.81
2023-01-19T20:35:18.221Z,3.74
2023-01-19T20:37:44.643Z,3.72
2023-01-19T20:40:11.100Z,3.74
2023-01-19T20:42:41.211Z,3.77
2023-01-19T20:45:08.628Z,3.77
2023-01-19T20:47:35.164Z,3.72
2023-01-19T20:50:01.570Z,3.75
2023-01-19T20:52:28.062Z,3.67
2023-01-19T20:54:54.747Z,3.64
2023-01-19T20:57:21.221Z,3.62
2023-01-19T20:59:47.604Z,3.60
2023-01-19T21:02:15.902Z,3.62
2023-01-19T21:04:42.333Z,3.63
2023-01-19T21:07:09.045Z,3.52
2023-01-19T21:09:37.423Z,3.46
2023-01-19T21:12:04.074Z,3.42
2023-01-19T21:14:30.645Z,3.38
2023-01-19T21:16:58.503Z,3.41
2023-01-19T21:19:25.606Z,3.45
2023-01-19T21:21:52.035Z,3.55
2023-01-19T21:24:18.568Z,3.60
2023-01-19T21:26:44.976Z,3.60
2023-01-19T21:29:13.250Z,3.55
2023-01-19T21:31:41.026Z,3.51
2023-01-19T21:34:07.587Z,3.51
2023-01-19T21:36:33.973Z,3.50
2023-01-19T21:39:00.969Z,3.53
2023-01-19T21:41:28.361Z,3.58
2023-01-19T21:43:54.962Z,3.63
2023-01-19T21:46:29.057Z,3.63
2023-01-19T21:48:57.340Z,3.57
2023-01-19T21:51:23.740Z,3.56
2023-01-19T21:53:52.164Z,3.60
2023-01-19T21:56:18.758Z,3.58
2023-01-19T21:59:04.224Z,3.45
2023-01-19T22:01:31.885Z,3.43
2023-01-19T22:03:58.686Z,3.48
2023-01-19T22:06:26.400Z,3.54
2023-01-19T22:08:54.497Z,3.47
2023-01-19T22:11:21.604Z,3.38
2023-01-19T22:13:48.451Z,3.40
2023-01-19T22:16:17.996Z,3.40
2023-01-19T22:18:49.315Z,3.36
2023-01-19T22:21:18.292Z,3.38
2023-01-19T22:23:50.737Z,3.32
2023-01-19T22:26:17.653Z,3.29
2023-01-19T22:28:44.696Z,3.26
2023-01-19T22:31:17.730Z,3.19
2023-01-19T22:33:44.902Z,3.23
2023-01-19T22:36:20.084Z,3.16
2023-01-19T22:38:57.900Z,3.16
2023-01-19T22:41:32.197Z,3.13
2023-01-19T22:44:01.162Z,3.13
2023-01-19T22:46:30.693Z,3.11
2023-01-19T22:48:57.775Z,3.12
2023-01-19T22:51:25.733Z,3.12
2023-01-19T22:53:52.906Z,3.18
2023-01-19T22:56:23.342Z,3.21
2023-01-19T22:58:49.958Z,3.23
2023-01-19T23:01:22.196Z,3.18
2023-01-19T23:03:49.486Z,3.13
2023-01-19T23:06:20.019Z,3.10
2023-01-19T23:08:46.451Z,3.06
2023-01-19T23:11:19.643Z,3.04
2023-01-19T23:13:46.224Z,3.05
2023-01-19T23:16:14.068Z,3.02
2023-01-19T23:18:41.505Z,3.00
2023-01-19T23:21:12.668Z,3.02
2023-01-19T23:23:40.215Z,2.98
2023-01-19T23:26:08.279Z,2.99
2023-01-19T23:28:34.793Z,2.91
2023-01-19T23:31:01.355Z,2.87
2023-01-19T23:33:27.816Z,2.93
2023-01-19T23:35:55.653Z,2.97
2023-01-19T23:38:22.662Z,2.98
2023-01-19T23:40:49.125Z,2.94
2023-01-19T23:43:15.949Z,2.94
2023-01-19T23:45:42.400Z,2.99
2023-01-19T23:48:08.747Z,2.95
2023-01-19T23:50:39.461Z,2.87
2023-01-19T23:53:05.813Z,2.78
2023-01-19T23:55:32.338Z,2.76
2023-01-19T23:57:58.714Z,2.80
